Time;durP1;ratioP1;P1;durP2;ratioP2;P2;SDS_P1;SDS_P2;PMS_P1;PMS_P2;Temp;Humidity;BMP_temperature;BMP_pressure;BME280_temperature;BME280_humidity;BME280_pressure;Samples;Min_cycle;Max_cycle;Signal;HPM_P1;HPM_P2
2021/07/29 00:00:10;;;;;;;2.67;1.30;;;;;;;20.39;49.72;100876.81;4919722;28;123929;-74
2021/07/29 00:02:37;;;;;;;4.80;1.20;;;;;;;20.39;49.73;100866.06;4928506;28;113214;-73
2021/07/29 00:05:05;;;;;;;3.67;1.73;;;;;;;20.39;49.58;100855.28;4930314;28;113731;-72
2021/07/29 00:07:32;;;;;;;4.13;1.42;;;;;;;20.42;49.70;100865.78;4923470;28;123876;-74
2021/07/29 00:10:00;;;;;;;3.78;1.40;;;;;;;20.42;49.70;100857.72;4926638;28;123708;-73
2021/07/29 00:12:28;;;;;;;1.80;1.02;;;;;;;20.43;49.46;100862.09;4923362;28;114591;-73
2021/07/29 00:14:55;;;;;;;5.03;1.23;;;;;;;20.41;49.56;100847.94;4925481;28;113790;-76
2021/07/29 00:17:30;;;;;;;2.85;1.40;;;;;;;20.40;49.44;100846.25;4925205;28;123487;-73
2021/07/29 00:19:59;;;;;;;3.10;1.30;;;;;;;20.39;49.56;100849.91;4923438;28;124159;-73
2021/07/29 00:22:26;;;;;;;1.95;1.00;;;;;;;20.40;49.51;100843.56;4929600;28;114076;-72
2021/07/29 00:24:53;;;;;;;5.03;1.10;;;;;;;20.41;49.61;100849.78;4918955;28;114228;-72
2021/07/29 00:27:20;;;;;;;4.75;1.45;;;;;;;20.39;49.60;100849.91;4934906;28;124398;-73
2021/07/29 00:29:47;;;;;;;2.67;1.17;;;;;;;20.40;49.47;100850.78;4930322;28;124409;-75
2021/07/29 00:32:14;;;;;;;3.13;1.35;;;;;;;20.39;49.58;100844.53;4933802;28;115501;-73
2021/07/29 00:34:41;;;;;;;3.80;1.45;;;;;;;20.39;49.52;100839.16;4928464;28;114888;-73
2021/07/29 00:37:08;;;;;;;2.17;1.30;;;;;;;20.38;49.40;100853.59;4917732;28;124779;-74
2021/07/29 00:39:35;;;;;;;3.72;1.58;;;;;;;20.36;49.53;100849.31;4924187;28;124950;-73
2021/07/29 00:42:03;;;;;;;5.63;1.50;;;;;;;20.33;49.42;100853.13;4916928;28;114749;-72
2021/07/29 00:44:30;;;;;;;2.58;1.30;;;;;;;20.30;49.37;100849.84;4926857;28;113150;-74
2021/07/29 00:46:57;;;;;;;2.55;1.20;;;;;;;20.28;49.63;100841.91;4933502;28;123500;-73
2021/07/29 00:49:25;;;;;;;3.75;1.25;;;;;;;20.27;49.52;100845.59;4930339;28;123958;-72
2021/07/29 00:51:52;;;;;;;2.83;1.30;;;;;;;20.26;49.48;100843.88;4929981;28;113566;-74
2021/07/29 00:54:19;;;;;;;4.97;1.40;;;;;;;20.21;49.37;100836.22;4931004;28;114711;-73
2021/07/29 00:56:46;;;;;;;3.40;1.25;;;;;;;20.20;49.36;100844.41;4925484;28;124368;-73
2021/07/29 00:59:13;;;;;;;2.10;1.00;;;;;;;20.18;49.53;100846.41;4921982;28;123691;-74
2021/07/29 01:01:40;;;;;;;3.58;1.60;;;;;;;20.15;49.47;100831.34;4922926;28;113267;-74
2021/07/29 01:04:07;;;;;;;4.63;1.27;;;;;;;20.14;49.46;100835.03;4926526;28;113598;-73
2021/07/29 01:06:34;;;;;;;5.72;1.52;;;;;;;20.14;49.36;100829.66;4926603;28;123859;-73
2021/07/29 01:09:08;;;;;;;5.43;1.40;;;;;;;20.13;49.42;100829.78;4929633;28;123392;-73
2021/07/29 01:11:37;;;;;;;4.32;1.10;;;;;;;20.13;49.62;100832.47;4927056;28;114534;-73
2021/07/29 01:14:04;;;;;;;4.20;1.52;;;;;;;20.12;49.57;100837.00;4930975;28;113925;-72
2021/07/29 01:16:33;;;;;;;4.85;1.30;;;;;;;20.12;49.61;100830.78;4931012;28;124212;-72
2021/07/29 01:19:01;;;;;;;4.40;1.30;;;;;;;20.11;49.74;100823.69;4927851;28;123157;-74
2021/07/29 01:21:48;;;;;;;3.08;1.25;;;;;;;20.10;49.68;100821.97;4927301;28;115435;-73
2021/07/29 01:24:15;;;;;;;5.22;1.30;;;;;;;20.09;49.77;100825.66;4923430;28;114625;-73
2021/07/29 01:26:42;;;;;;;4.43;1.30;;;;;;;20.09;49.57;100826.50;4928800;28;124181;-72
2021/07/29 01:29:09;;;;;;;4.70;1.42;;;;;;;20.09;49.79;100826.50;4930796;28;124111;-72
2021/07/29 01:31:37;;;;;;;2.70;1.15;;;;;;;20.10;49.74;100827.34;4927300;28;114237;-73
2021/07/29 01:34:04;;;;;;;4.18;1.30;;;;;;;20.09;49.83;100826.50;4922576;28;113731;-73
2021/07/29 01:36:32;;;;;;;3.80;1.40;;;;;;;20.09;49.79;100829.19;4930952;28;124030;-73
2021/07/29 01:39:00;;;;;;;4.05;1.23;;;;;;;20.10;49.65;100824.66;4930185;28;122744;-73
2021/07/29 01:41:28;;;;;;;2.65;1.23;;;;;;;20.09;49.82;100817.59;4925844;28;113533;-72
2021/07/29 01:43:55;;;;;;;2.35;1.10;;;;;;;20.08;49.75;100813.19;4922996;28;114296;-74
2021/07/29 01:46:22;;;;;;;4.05;1.45;;;;;;;20.07;49.83;100817.72;4926672;28;124297;-73
2021/07/29 01:48:49;;;;;;;4.80;1.40;;;;;;;20.06;49.68;100826.78;4930496;28;123383;-74
2021/07/29 01:51:16;;;;;;;3.15;1.30;;;;;;;20.03;49.74;100827.88;4931104;28;113822;-72
2021/07/29 01:53:43;;;;;;;4.70;1.38;;;;;;;20.01;49.72;100819.09;4928796;28;114290;-74
2021/07/29 01:56:10;;;;;;;4.45;1.40;;;;;;;20.00;49.68;100817.41;4929325;28;123760;-72
2021/07/29 01:58:37;;;;;;;4.45;1.40;;;;;;;19.99;49.95;100815.69;4935969;28;123943;-73
2021/07/29 02:01:04;;;;;;;2.20;1.20;;;;;;;19.98;49.96;100824.72;4936357;28;114733;-74
2021/07/29 02:03:32;;;;;;;5.88;1.52;;;;;;;19.98;49.87;100816.66;4938833;28;114037;-73
2021/07/29 02:06:02;;;;;;;3.25;1.30;;;;;;;19.97;49.65;100823.03;4940480;28;124102;-74
2021/07/29 02:08:29;;;;;;;2.88;1.40;;;;;;;19.95;49.93;100819.63;4932007;28;123579;-73
2021/07/29 02:11:03;;;;;;;3.17;1.48;;;;;;;19.91;49.90;100823.56;4929685;28;114896;-73
2021/07/29 02:13:30;;;;;;;5.90;1.50;;;;;;;19.91;49.82;100828.94;4923943;28;114530;-73
2021/07/29 02:15:58;;;;;;;3.65;1.40;;;;;;;19.90;49.83;100835.28;4929266;28;124579;-74
2021/07/29 02:18:25;;;;;;;4.43;1.50;;;;;;;19.87;50.06;100840.91;4922240;28;124769;-74
2021/07/29 02:20:52;;;;;;;2.88;1.60;;;;;;;19.84;49.91;100830.44;4925333;28;114346;-73
2021/07/29 02:23:19;;;;;;;3.45;1.33;;;;;;;19.82;50.22;100830.56;4921438;28;115425;-72
2021/07/29 02:25:46;;;;;;;6.03;1.42;;;;;;;19.80;50.19;100831.69;4925911;28;123907;-73
2021/07/29 02:28:13;;;;;;;3.67;1.33;;;;;;;19.79;50.12;100836.19;4927820;28;123127;-73
2021/07/29 02:30:40;;;;;;;4.95;1.50;;;;;;;19.78;50.10;100837.19;4920733;28;114238;-74
2021/07/29 02:33:07;;;;;;;7.55;1.80;;;;;;;19.78;50.25;100834.50;4920013;28;114757;-74
2021/07/29 02:35:35;;;;;;;4.43;1.60;;;;;;;19.78;50.24;100830.97;4923998;28;125060;-73
2021/07/29 02:38:02;;;;;;;3.70;1.20;;;;;;;19.75;50.13;100829.38;4925846;28;123238;-73
2021/07/29 02:40:29;;;;;;;4.43;1.50;;;;;;;19.74;50.19;100829.50;4924371;28;114761;-73
2021/07/29 02:42:56;;;;;;;4.50;1.50;;;;;;;19.74;50.24;100832.19;4921223;28;113263;-73
2021/07/29 02:45:23;;;;;;;3.55;1.38;;;;;;;19.71;50.46;100837.81;4921266;28;124302;-73
2021/07/29 02:47:51;;;;;;;3.50;1.30;;;;;;;19.69;50.40;100837.09;4919826;28;123720;-73
2021/07/29 02:50:18;;;;;;;5.45;1.55;;;;;;;19.65;50.47;100837.31;4923612;28;114991;-73
2021/07/29 02:52:45;;;;;;;5.53;1.50;;;;;;;19.63;50.31;100836.59;4922344;28;114255;-73
2021/07/29 02:55:12;;;;;;;4.18;1.50;;;;;;;19.60;50.67;100831.47;4928811;28;123641;-73
2021/07/29 02:57:39;;;;;;;4.45;1.35;;;;;;;19.60;50.72;100836.00;4926061;28;124093;-73
2021/07/29 03:00:06;;;;;;;3.90;1.17;;;;;;;19.57;50.60;100826.38;4926484;28;114416;-74
2021/07/29 03:02:33;;;;;;;5.63;1.90;;;;;;;19.57;50.77;100830.88;4922933;28;114784;-73
2021/07/29 03:05:01;;;;;;;5.85;1.48;;;;;;;19.54;50.63;100837.38;4922595;28;124157;-73
2021/07/29 03:07:30;;;;;;;4.85;1.40;;;;;;;19.53;50.62;100841.03;4926066;28;124068;-73
2021/07/29 03:09:57;;;;;;;7.20;1.67;;;;;;;19.51;50.83;100848.34;4926505;28;113420;-72
2021/07/29 03:12:25;;;;;;;6.28;1.50;;;;;;;19.48;50.79;100848.63;4921497;28;113870;-72
2021/07/29 03:14:52;;;;;;;4.63;1.50;;;;;;;19.47;51.07;100852.28;4921681;28;123593;-74
2021/07/29 03:17:19;;;;;;;7.70;1.58;;;;;;;19.43;51.10;100835.56;4927890;28;126121;-73
2021/07/29 03:19:46;;;;;;;4.32;1.40;;;;;;;19.42;51.25;100839.25;4928250;28;114104;-73
2021/07/29 03:22:13;;;;;;;3.92;1.40;;;;;;;19.39;51.05;100844.00;4919768;28;113375;-72
2021/07/29 03:24:40;;;;;;;6.05;1.67;;;;;;;19.38;51.08;100850.34;4921113;28;123908;-72
2021/07/29 03:27:07;;;;;;;5.10;1.45;;;;;;;19.35;51.27;100842.56;4911724;28;122982;-73
2021/07/29 03:29:34;;;;;;;5.30;1.40;;;;;;;19.33;51.48;100849.91;4918064;28;114864;-73
2021/07/29 03:32:02;;;;;;;5.03;1.63;;;;;;;19.30;51.58;100839.41;4920421;28;114057;-73
2021/07/29 03:34:29;;;;;;;3.25;1.42;;;;;;;19.28;51.41;100841.34;4917347;28;124339;-73
2021/07/29 03:36:56;;;;;;;7.72;1.80;;;;;;;19.24;51.55;100844.28;4923732;28;124771;-73
2021/07/29 03:39:23;;;;;;;3.88;1.38;;;;;;;19.23;51.56;100845.28;4924365;28;114505;-73
2021/07/29 03:41:50;;;;;;;4.57;1.58;;;;;;;19.21;51.99;100857.97;4921573;28;113177;-74
2021/07/29 03:44:17;;;;;;;6.70;1.70;;;;;;;19.20;52.17;100850.88;4925399;28;124498;-73
2021/07/29 03:46:44;;;;;;;3.20;1.60;;;;;;;19.18;51.97;100855.53;4919963;28;124065;-73
2021/07/29 03:49:11;;;;;;;3.33;1.60;;;;;;;19.18;51.92;100858.22;4926439;28;115400;-73
2021/07/29 03:51:38;;;;;;;5.07;1.70;;;;;;;19.17;52.00;100861.84;4923628;28;115066;-73
2021/07/29 03:54:05;;;;;;;6.00;1.63;;;;;;;19.18;52.07;100852.00;4921243;28;124019;-72
2021/07/29 03:56:32;;;;;;;5.50;1.80;;;;;;;19.18;52.06;100852.84;4923297;28;123340;-72
2021/07/29 03:58:59;;;;;;;6.25;1.83;;;;;;;19.18;52.13;100863.59;4918393;28;114527;-73
2021/07/29 04:01:27;;;;;;;5.22;1.77;;;;;;;19.16;52.18;100860.16;4931698;28;113956;-74
2021/07/29 04:03:55;;;;;;;3.33;1.50;;;;;;;19.14;52.20;100862.13;4927077;28;122781;-73
2021/07/29 04:06:22;;;;;;;4.57;1.63;;;;;;;19.13;52.40;100876.50;4920332;28;123466;-72
2021/07/29 04:08:49;;;;;;;4.78;1.65;;;;;;;19.12;52.43;100868.56;4930191;28;113207;-72
2021/07/29 04:11:16;;;;;;;5.05;1.75;;;;;;;19.10;52.32;100874.09;4927680;28;114554;-72
2021/07/29 04:13:43;;;;;;;4.18;1.88;;;;;;;19.11;52.51;100878.47;4927958;28;124138;-75
2021/07/29 04:16:11;;;;;;;6.30;1.50;;;;;;;19.11;52.79;100878.47;4931859;28;124580;-72
2021/07/29 04:18:38;;;;;;;4.70;1.40;;;;;;;19.11;52.55;100870.41;4923808;28;113122;-74
2021/07/29 04:21:05;;;;;;;6.50;1.88;;;;;;;19.12;52.37;100869.47;4933844;28;114248;-73
2021/07/29 04:23:32;;;;;;;7.85;1.67;;;;;;;19.13;52.78;100871.16;4930264;28;123774;-72
2021/07/29 04:25:59;;;;;;;3.55;1.50;;;;;;;19.15;52.73;100873.72;4923465;28;124014;-74
2021/07/29 04:28:26;;;;;;;6.65;1.60;;;;;;;19.15;52.50;100879.94;4934340;28;114731;-73
2021/07/29 04:30:53;;;;;;;5.95;1.60;;;;;;;19.15;53.06;100879.94;4929042;28;113201;-73
2021/07/29 04:33:21;;;;;;;6.43;1.67;;;;;;;19.16;53.00;100876.28;4926568;28;125506;-73
2021/07/29 04:35:48;;;;;;;6.75;1.80;;;;;;;19.17;53.04;100877.97;4922551;28;123940;-73
2021/07/29 04:38:15;;;;;;;4.72;1.60;;;;;;;19.20;53.08;100880.41;4921436;28;115141;-73
2021/07/29 04:40:42;;;;;;;5.85;1.45;;;;;;;19.22;53.11;100883.81;4918507;28;114985;-73
2021/07/29 04:43:09;;;;;;;4.68;1.80;;;;;;;19.24;53.06;100884.56;4928461;28;124510;-72
2021/07/29 04:45:36;;;;;;;7.50;1.73;;;;;;;19.27;53.05;100883.47;4924315;28;124159;-73
2021/07/29 04:48:05;;;;;;;4.78;1.40;;;;;;;19.30;53.00;100887.72;4912802;28;113753;-73
2021/07/29 04:50:32;;;;;;;6.32;1.80;;;;;;;19.31;53.06;100889.41;4928832;28;114565;-73
2021/07/29 04:52:59;;;;;;;5.50;1.52;;;;;;;19.32;52.97;100885.78;4920146;28;123523;-72
2021/07/29 04:55:26;;;;;;;4.40;1.42;;;;;;;19.32;53.11;100889.31;4922701;28;123537;-73
2021/07/29 04:57:54;;;;;;;7.07;1.77;;;;;;;19.33;53.04;100885.66;4926711;28;115105;-75
2021/07/29 05:00:21;;;;;;;7.95;1.67;;;;;;;19.34;53.13;100890.03;4921284;28;114282;-73
2021/07/29 05:02:52;;;;;;;7.25;2.05;;;;;;;19.34;53.19;100895.41;4925533;28;124572;-75
2021/07/29 05:05:19;;;;;;;4.20;1.42;;;;;;;19.34;53.03;100900.78;4927981;28;123670;-74
2021/07/29 05:07:52;;;;;;;5.10;1.80;;;;;;;19.34;53.33;100902.63;4918828;28;114498;-72
2021/07/29 05:10:19;;;;;;;6.28;1.50;;;;;;;19.36;53.26;100897.97;4925738;28;112918;-72
2021/07/29 05:12:46;;;;;;;7.75;1.88;;;;;;;19.39;53.52;100900.41;4923297;28;124020;-73
2021/07/29 05:15:13;;;;;;;6.78;1.60;;;;;;;19.43;53.43;100899.19;4927026;28;123103;-74
2021/07/29 05:17:40;;;;;;;5.32;1.70;;;;;;;19.47;53.52;100894.41;4930982;28;114402;-72
2021/07/29 05:20:10;;;;;;;5.63;1.60;;;;;;;19.52;53.36;100898.44;4929513;28;113100;-74
2021/07/29 05:22:37;;;;;;;6.43;1.95;;;;;;;19.57;53.44;100901.59;4926858;28;123149;-73
2021/07/29 05:25:04;;;;;;;8.00;1.75;;;;;;;19.62;53.50;100899.38;4919445;28;124053;-73
2021/07/29 05:27:31;;;;;;;4.60;1.60;;;;;;;19.65;53.32;100901.81;4919848;28;115503;-74
2021/07/29 05:29:59;;;;;;;5.80;1.60;;;;;;;19.70;53.24;100900.56;4924079;28;114880;-73
2021/07/29 05:32:26;;;;;;;5.32;1.63;;;;;;;19.71;53.34;100905.81;4919719;28;124832;-73
2021/07/29 05:34:53;;;;;;;6.82;1.80;;;;;;;19.75;53.35;100903.78;4927344;28;123257;-72
2021/07/29 05:37:20;;;;;;;4.78;1.73;;;;;;;19.77;53.19;100907.19;4930074;28;114300;-73
2021/07/29 05:39:47;;;;;;;6.55;1.73;;;;;;;19.79;53.40;100910.59;4932013;28;114197;-73
2021/07/29 05:42:20;;;;;;;6.35;1.70;;;;;;;19.82;53.23;100916.56;4930392;28;123682;-74
2021/07/29 05:44:47;;;;;;;5.75;1.80;;;;;;;19.85;53.32;100915.44;4926312;28;124700;-74
2021/07/29 05:47:14;;;;;;;7.68;1.88;;;;;;;19.87;53.26;100918.88;4929148;28;114575;-72
2021/07/29 05:49:41;;;;;;;8.93;1.77;;;;;;;19.89;53.39;100916.94;4924339;28;114923;-73
2021/07/29 05:52:08;;;;;;;8.07;1.60;;;;;;;19.94;53.25;100925.44;4928044;28;123493;-73
2021/07/29 05:54:35;;;;;;;6.82;1.63;;;;;;;19.96;53.17;100925.31;4930189;28;124496;-73
2021/07/29 05:57:02;;;;;;;5.72;1.65;;;;;;;19.97;53.27;100925.19;4929413;28;115103;-72
2021/07/29 05:59:29;;;;;;;7.22;1.60;;;;;;;19.98;53.02;100910.75;4932001;28;113875;-73
2021/07/29 06:01:56;;;;;;;4.28;1.58;;;;;;;19.98;52.94;100934.94;4929843;28;124969;-74
2021/07/29 06:04:24;;;;;;;8.25;2.13;;;;;;;19.98;53.07;100926.03;4922189;28;124255;-72
2021/07/29 06:06:51;;;;;;;7.32;1.60;;;;;;;19.97;53.04;100930.56;4927009;28;113335;-73
2021/07/29 06:09:18;;;;;;;8.52;1.95;;;;;;;19.98;53.18;100926.88;4930794;28;113140;-73
2021/07/29 06:11:45;;;;;;;4.97;1.70;;;;;;;19.99;52.98;100925.91;4924791;28;124084;-72
2021/07/29 06:14:12;;;;;;;8.15;1.92;;;;;;;20.03;53.23;100923.84;4925285;28;124243;-71
2021/07/29 06:16:39;;;;;;;9.57;1.60;;;;;;;20.08;53.26;100931.50;4921953;28;115120;-73
2021/07/29 06:19:15;;;;;;;5.45;1.65;;;;;;;20.12;53.07;100923.06;4930943;28;114677;-73
2021/07/29 06:21:42;;;;;;;6.28;1.73;;;;;;;20.16;53.01;100929.03;4924881;28;123074;-73
2021/07/29 06:24:09;;;;;;;3.40;1.83;;;;;;;20.21;52.95;100926.78;4927081;28;124156;-71
2021/07/29 06:26:37;;;;;;;6.85;1.80;;;;;;;20.24;52.96;100926.53;4932394;28;114179;-76
2021/07/29 06:29:06;;;;;;;4.57;1.73;;;;;;;20.32;52.78;100929.44;4923632;28;113665;-73
2021/07/29 06:31:33;;;;;;;6.72;2.08;;;;;;;20.38;52.85;100928.06;4922020;28;123169;-74
2021/07/29 06:34:00;;;;;;;6.90;1.90;;;;;;;20.44;52.66;100932.94;4921509;28;123189;-74
2021/07/29 06:36:27;;;;;;;6.68;2.00;;;;;;;20.51;52.75;100938.63;4922890;28;113940;-73
2021/07/29 06:38:54;;;;;;;5.70;1.92;;;;;;;20.58;52.48;100945.19;4902104;28;112823;-74
2021/07/29 06:41:21;;;;;;;6.63;1.90;;;;;;;20.64;52.53;100947.38;4922390;28;123793;-73
2021/07/29 06:43:48;;;;;;;6.95;1.83;;;;;;;20.70;52.26;100948.69;4922694;28;123620;-73
2021/07/29 06:46:15;;;;;;;5.68;1.80;;;;;;;20.73;52.24;100954.66;4919033;28;114705;-73
2021/07/29 06:48:42;;;;;;;7.28;1.90;;;;;;;20.78;52.19;100946.22;4923438;28;115542;-73
2021/07/29 06:51:10;;;;;;;5.65;1.90;;;;;;;20.84;52.10;100960.97;4915569;28;125323;-73
2021/07/29 06:53:37;;;;;;;8.02;1.88;;;;;;;20.90;52.03;100960.44;4916665;28;123286;-73
2021/07/29 06:56:07;;;;;;;5.88;1.70;;;;;;;20.96;52.08;100957.19;4919929;28;114349;-75
2021/07/29 06:58:35;;;;;;;7.20;2.10;;;;;;;21.00;51.87;100966.72;4919534;28;113819;-74
2021/07/29 07:01:03;;;;;;;6.57;1.75;;;;;;;21.04;51.64;100962.78;4916557;28;123334;-73
2021/07/29 07:03:31;;;;;;;6.25;1.50;;;;;;;21.08;51.35;100964.22;4923628;28;123802;-73
2021/07/29 07:06:00;;;;;;;6.38;1.50;;;;;;;21.14;51.45;100958.28;4926489;28;115328;-73
2021/07/29 07:08:27;;;;;;;4.80;1.63;;;;;;;21.18;51.21;100967.78;4917334;28;114040;-72
2021/07/29 07:10:54;;;;;;;7.82;1.60;;;;;;;21.26;51.35;100971.66;4920268;28;124339;-73
2021/07/29 07:13:21;;;;;;;11.15;2.10;;;;;;;21.35;51.27;100970.84;4924733;28;124766;-73
2021/07/29 07:15:48;;;;;;;8.13;1.95;;;;;;;21.46;51.12;100968.09;4928002;28;113712;-72
2021/07/29 07:18:15;;;;;;;7.68;2.08;;;;;;;21.59;51.09;100984.00;4920305;28;113981;-74
2021/07/29 07:20:43;;;;;;;7.47;1.85;;;;;;;21.69;50.68;100973.25;4898823;28;124183;-74
2021/07/29 07:23:13;;;;;;;5.15;1.70;;;;;;;21.78;50.49;100977.81;4898994;28;123998;-74
2021/07/29 07:25:40;;;;;;;5.35;1.75;;;;;;;21.84;50.25;100974.56;4914707;28;113546;-74
2021/07/29 07:28:07;;;;;;;6.00;1.70;;;;;;;21.91;50.31;100983.81;4918334;28;113895;-73
2021/07/29 07:30:35;;;;;;;6.75;1.88;;;;;;;22.03;50.34;100986.38;4930086;28;124503;-73
2021/07/29 07:33:02;;;;;;;6.93;1.70;;;;;;;22.14;50.11;100980.84;4931665;28;123145;-74
2021/07/29 07:35:29;;;;;;;7.05;1.98;;;;;;;22.26;49.71;100977.03;4930449;28;115055;-71
2021/07/29 07:37:56;;;;;;;5.85;1.98;;;;;;;22.35;49.64;101000.47;4926419;28;115372;-72
2021/07/29 07:40:23;;;;;;;4.15;1.60;;;;;;;22.47;49.37;100990.41;4914141;28;124027;-71
2021/07/29 07:42:50;;;;;;;5.85;1.67;;;;;;;22.58;49.12;100992.06;4929644;28;123742;-72
2021/07/29 07:45:17;;;;;;;4.93;1.88;;;;;;;22.68;48.96;100992.09;4914470;28;113398;-72
2021/07/29 07:47:44;;;;;;;7.63;2.00;;;;;;;22.73;48.64;100996.06;4930867;28;113982;-72
2021/07/29 07:50:11;;;;;;;6.03;1.70;;;;;;;22.80;48.60;100990.06;4931369;28;124199;-72
2021/07/29 07:52:38;;;;;;;6.45;1.83;;;;;;;22.88;48.67;100982.09;4931836;28;124627;-70
2021/07/29 07:55:06;;;;;;;8.55;2.10;;;;;;;22.97;48.58;100992.00;4930402;28;115775;-72
2021/07/29 07:57:33;;;;;;;7.65;2.00;;;;;;;23.03;48.21;100986.06;4932567;28;115487;-73
2021/07/29 08:00:00;;;;;;;6.07;1.65;;;;;;;23.03;47.80;100996.84;4930706;28;123253;-72
2021/07/29 08:02:27;;;;;;;9.75;1.73;;;;;;;23.02;47.76;100989.72;4936120;28;122782;-72
2021/07/29 08:04:55;;;;;;;7.72;2.00;;;;;;;23.04;47.77;100993.16;4940973;28;114278;-71
2021/07/29 08:07:22;;;;;;;6.50;2.10;;;;;;;23.08;47.76;100983.75;4942454;28;114133;-70
2021/07/29 08:09:49;;;;;;;6.03;1.70;;;;;;;23.11;47.31;100999.69;4933191;28;123466;-72
2021/07/29 08:12:16;;;;;;;5.57;1.65;;;;;;;23.12;47.02;100997.84;4932173;28;123454;-73
2021/07/29 08:14:43;;;;;;;6.07;1.50;;;;;;;23.11;46.87;101005.09;4931620;28;114066;-76
2021/07/29 08:17:10;;;;;;;5.65;1.50;;;;;;;23.11;46.49;100997.00;4932090;28;113743;-72
2021/07/29 08:19:37;;;;;;;7.18;1.80;;;;;;;23.07;46.41;100998.25;4925974;28;124079;-72
2021/07/29 08:22:04;;;;;;;4.70;1.58;;;;;;;23.03;46.40;101002.25;4921704;28;123065;-72
2021/07/29 08:24:33;;;;;;;8.80;1.92;;;;;;;22.99;46.28;100990.00;4926033;28;114091;-72
2021/07/29 08:27:01;;;;;;;4.50;1.63;;;;;;;22.93;46.07;100996.84;4926419;28;113867;-72
2021/07/29 08:29:31;;;;;;;5.20;1.50;;;;;;;22.88;46.09;100998.28;4916034;28;124488;-71
2021/07/29 08:31:58;;;;;;;5.00;1.63;;;;;;;22.82;46.21;101001.56;4919499;28;124483;-73
2021/07/29 08:34:26;;;;;;;5.55;2.00;;;;;;;22.79;46.25;100996.47;4915195;28;113793;-72
2021/07/29 08:36:53;;;;;;;4.25;1.80;;;;;;;22.77;46.36;101001.16;4916451;28;111889;-71
2021/07/29 08:39:20;;;;;;;8.20;2.00;;;;;;;22.74;46.41;100999.59;4916026;28;124103;-70
2021/07/29 08:41:47;;;;;;;3.63;1.67;;;;;;;22.73;46.48;101001.47;4914796;28;123683;-72
2021/07/29 08:44:15;;;;;;;4.65;1.80;;;;;;;22.70;46.32;101007.13;4896442;28;115138;-72
2021/07/29 08:46:44;;;;;;;3.95;1.55;;;;;;;22.64;46.46;101013.13;4922589;28;114941;-72
2021/07/29 08:49:11;;;;;;;7.75;2.22;;;;;;;22.61;46.36;101013.41;4928921;28;124072;-72
2021/07/29 08:51:38;;;;;;;7.05;1.90;;;;;;;22.56;46.50;101010.28;4924323;28;124090;-72
2021/07/29 08:54:08;;;;;;;5.18;1.90;;;;;;;22.55;46.60;101013.97;4924110;28;114448;-70
2021/07/29 08:56:35;;;;;;;5.32;1.90;;;;;;;22.56;46.64;101010.28;4934155;28;112875;-71
2021/07/29 08:59:02;;;;;;;5.93;1.70;;;;;;;22.58;46.47;101024.47;4932858;28;121866;-72
2021/07/29 09:01:43;;;;;;;7.88;1.95;;;;;;;22.57;46.50;101028.19;4943000;28;122872;-72
2021/07/29 09:04:15;;;;;;;6.75;1.65;;;;;;;22.64;46.77;101023.94;4940059;28;114692;-72
2021/07/29 09:07:02;;;;;;;8.32;2.05;;;;;;;22.77;46.78;101028.16;4940998;28;113451;-71
2021/07/29 09:09:45;;;;;;;4.60;1.70;;;;;;;22.95;46.74;101015.63;4941526;28;124320;-72
2021/07/29 09:12:17;;;;;;;5.80;1.80;;;;;;;23.16;46.52;101028.13;4936730;28;124545;-72
2021/07/29 09:14:45;;;;;;;6.03;1.60;;;;;;;23.33;46.23;101013.84;4937532;28;113604;-71
2021/07/29 09:17:14;;;;;;;8.30;2.05;;;;;;;23.44;45.67;101016.34;4933703;28;113088;-72
2021/07/29 09:19:45;;;;;;;6.15;1.83;;;;;;;23.49;45.08;101018.63;4936730;28;124328;-72
2021/07/29 09:22:20;;;;;;;9.65;2.13;;;;;;;23.49;44.83;101022.16;4938882;28;123917;-73
2021/07/29 09:25:08;;;;;;;7.90;2.40;;;;;;;23.50;45.02;101025.72;4932503;28;113947;-71
2021/07/29 09:27:38;;;;;;;8.00;1.92;;;;;;;23.51;44.70;101025.56;4947300;28;114522;-73
2021/07/29 09:30:20;;;;;;;6.72;2.03;;;;;;;23.51;44.44;101028.28;4946642;28;124531;-72
2021/07/29 09:32:52;;;;;;;7.57;1.95;;;;;;;23.54;44.96;101026.25;4942604;28;121651;-72
2021/07/29 09:35:41;;;;;;;6.82;1.98;;;;;;;23.59;44.92;101034.78;4933221;28;114469;-72
2021/07/29 09:38:27;;;;;;;5.32;1.83;;;;;;;23.66;44.92;101036.75;4928208;28;114223;-72
2021/07/29 09:40:58;;;;;;;6.28;2.13;;;;;;;23.72;44.71;101040.69;4931351;28;123386;-72
2021/07/29 09:43:30;;;;;;;4.90;1.75;;;;;;;23.74;44.87;101037.84;4932355;28;123422;-72
2021/07/29 09:46:00;;;;;;;5.15;1.90;;;;;;;23.77;44.92;101033.00;4937190;28;114236;-72
2021/07/29 09:48:27;;;;;;;5.63;1.88;;;;;;;23.82;44.84;101049.63;4936323;28;114201;-72
2021/07/29 09:50:58;;;;;;;5.40;1.60;;;;;;;23.88;44.70;101046.34;4933648;28;124543;-73
2021/07/29 09:53:33;;;;;;;8.20;2.20;;;;;;;23.95;44.78;101045.72;4930585;28;124738;-72
2021/07/29 09:56:01;;;;;;;5.00;1.52;;;;;;;24.02;44.75;101046.84;4926844;28;114316;-72
2021/07/29 09:58:28;;;;;;;4.97;1.60;;;;;;;24.06;44.53;101045.53;4934980;28;114193;-72
2021/07/29 10:00:55;;;;;;;3.97;1.80;;;;;;;24.11;44.34;101045.94;4919790;28;123489;-71
2021/07/29 10:03:23;;;;;;;7.43;2.10;;;;;;;24.14;44.07;101040.19;4924122;28;124784;-71
2021/07/29 10:05:57;;;;;;;4.80;1.75;;;;;;;24.20;44.09;101042.28;4933630;28;114267;-72
2021/07/29 10:08:34;;;;;;;5.50;1.77;;;;;;;24.28;43.96;101038.81;4916333;28;112922;-73
2021/07/29 10:11:06;;;;;;;5.00;1.65;;;;;;;24.35;43.86;101030.94;4922382;28;123696;-72
2021/07/29 10:13:35;;;;;;;3.90;1.73;;;;;;;24.40;43.69;101034.03;4930898;28;124011;-72
2021/07/29 10:16:04;;;;;;;5.03;1.55;;;;;;;24.44;43.38;101035.41;4932955;28;113057;-72
2021/07/29 10:18:50;;;;;;;8.32;1.88;;;;;;;24.44;43.33;101024.59;4928083;28;114288;-71
2021/07/29 10:21:23;;;;;;;5.53;1.63;;;;;;;24.46;43.12;101028.81;4931693;28;122048;-72
2021/07/29 10:23:51;;;;;;;3.67;1.58;;;;;;;24.48;42.74;101028.69;4931177;28;125163;-71
2021/07/29 10:26:19;;;;;;;6.18;1.70;;;;;;;24.42;42.69;101027.44;4930433;28;114895;-72
2021/07/29 10:28:46;;;;;;;6.13;1.65;;;;;;;24.39;42.29;101026.91;4917530;28;114948;-71
2021/07/29 10:31:16;;;;;;;3.17;1.63;;;;;;;24.37;42.84;101028.91;4919038;28;123814;-72
2021/07/29 10:33:46;;;;;;;5.10;1.77;;;;;;;24.36;42.71;101038.91;4929829;28;124130;-71
2021/07/29 10:36:46;;;;;;;5.03;1.55;;;;;;;24.32;42.21;101042.06;4920149;28;113230;-72
2021/07/29 10:39:14;;;;;;;6.90;1.88;;;;;;;24.22;41.89;101042.13;4924882;28;114570;-71
2021/07/29 10:41:41;;;;;;;6.50;1.75;;;;;;;24.09;42.29;101043.38;4926655;28;124806;-71
2021/07/29 10:44:29;;;;;;;6.60;2.10;;;;;;;24.02;42.21;101057.66;4925171;28;123566;-71
2021/07/29 10:46:56;;;;;;;6.10;1.60;;;;;;;23.95;42.39;101051.16;4932537;28;113392;-72
2021/07/29 10:49:45;;;;;;;6.05;1.80;;;;;;;23.83;42.38;101045.94;4932521;28;113858;-72
2021/07/29 10:52:13;;;;;;;6.55;1.90;;;;;;;23.79;42.75;101047.25;4930121;28;124213;-71
2021/07/29 10:54:43;;;;;;;4.30;1.83;;;;;;;23.78;42.81;101061.72;4927287;28;123753;-72
2021/07/29 10:57:13;;;;;;;8.20;2.00;;;;;;;23.81;43.07;101053.34;4916675;28;114374;-71
2021/07/29 10:59:40;;;;;;;4.95;2.13;;;;;;;23.89;43.03;101049.91;4916354;28;114240;-70
2021/07/29 11:02:18;;;;;;;8.77;2.08;;;;;;;23.96;43.16;101047.41;4917873;28;124341;-70
2021/07/29 11:04:59;;;;;;;5.93;1.75;;;;;;;23.96;42.85;101047.41;4917912;28;123844;-70
2021/07/29 11:07:26;;;;;;;7.60;1.90;;;;;;;23.89;42.64;101053.44;4921714;28;114897;-71
2021/07/29 11:10:05;;;;;;;8.68;2.42;;;;;;;23.80;42.74;101054.34;4930072;28;114147;-71
2021/07/29 11:12:35;;;;;;;5.03;1.90;;;;;;;23.75;42.87;101058.47;4915872;28;123459;-71
2021/07/29 11:15:03;;;;;;;6.45;1.67;;;;;;;23.66;43.08;101062.94;4918460;28;124227;-71
2021/07/29 11:17:31;;;;;;;6.10;1.80;;;;;;;23.58;43.48;101065.53;4917971;28;115143;-71
2021/07/29 11:19:58;;;;;;;6.43;1.90;;;;;;;23.47;43.64;101075.53;4920049;28;113353;-72
2021/07/29 11:22:25;;;;;;;8.40;2.22;;;;;;;23.36;44.02;101091.94;4920645;28;124419;-71